WLF105 KTUS-KLAS
Flight info
| Callsign | WLF105 |
|---|---|
| Flight time | 0h 56m |
| Altitude | 43000 |
| Route | WLDKT4 BBALL PXR J11 DRK ELLDA RKSTR4 |
| Aircraft | C700/M-SBDGHM1RWXY/LB2 |
Departure
| Time | 2026-05-08 22:31 |
|---|---|
| Airport | Tucson International Airport (KTUS) |
Arrival
| Time | 2026-05-08 23:27 |
|---|---|
| Airport | Harry Reid International Airport (KLAS) |
| Time | Latitude | Longitude | Altitude | Speed | Heading |
|---|---|---|---|---|---|
| 2026-05-08 22:10 | 32.11542 | -110.95616 | 2587 ft | 0 kts | 89° |
| 2026-05-08 22:20 | 32.11542 | -110.95601 | 2580 ft | 8 kts | 86° |
| 2026-05-08 22:21 | 32.11607 | -110.95575 | 2584 ft | 16 kts | 1° |
| 2026-05-08 22:21 | 32.11719 | -110.95583 | 2587 ft | 4 kts | 326° |
| 2026-05-08 22:21 | 32.11750 | -110.95632 | 2587 ft | 9 kts | 350° |
| 2026-05-08 22:21 | 32.11798 | -110.95563 | 2592 ft | 16 kts | 42° |
| 2026-05-08 22:22 | 32.11906 | -110.95443 | 2587 ft | 27 kts | 46° |
| 2026-05-08 22:22 | 32.12002 | -110.95327 | 2591 ft | 14 kts | 43° |
| 2026-05-08 22:22 | 32.12091 | -110.95225 | 2592 ft | 24 kts | 43° |
| 2026-05-08 22:22 | 32.12189 | -110.95111 | 2601 ft | 13 kts | 50° |
| 2026-05-08 22:23 | 32.12264 | -110.95017 | 2603 ft | 15 kts | 44° |
| 2026-05-08 22:23 | 32.12347 | -110.94918 | 2600 ft | 17 kts | 45° |
| 2026-05-08 22:23 | 32.12384 | -110.94875 | 2599 ft | 10 kts | 45° |
| 2026-05-08 22:23 | 32.12438 | -110.94812 | 2599 ft | 0 kts | 45° |
| 2026-05-08 22:24 | 32.12448 | -110.94800 | 2599 ft | 7 kts | 45° |
| 2026-05-08 22:24 | 32.12469 | -110.94775 | 2591 ft | 5 kts | 45° |
| 2026-05-08 22:24 | 32.12485 | -110.94720 | 2594 ft | 10 kts | 139° |
| 2026-05-08 22:24 | 32.12411 | -110.94632 | 2597 ft | 22 kts | 134° |
| 2026-05-08 22:25 | 32.12311 | -110.94515 | 2600 ft | 17 kts | 138° |
| 2026-05-08 22:25 | 32.12210 | -110.94397 | 2601 ft | 21 kts | 134° |
| 2026-05-08 22:25 | 32.12110 | -110.94279 | 2603 ft | 21 kts | 136° |
| 2026-05-08 22:25 | 32.11991 | -110.94140 | 2600 ft | 28 kts | 135° |
| 2026-05-08 22:26 | 32.11841 | -110.93963 | 2599 ft | 31 kts | 133° |
| 2026-05-08 22:26 | 32.11687 | -110.93783 | 2599 ft | 29 kts | 135° |
| 2026-05-08 22:26 | 32.11537 | -110.93605 | 2601 ft | 20 kts | 135° |
| 2026-05-08 22:26 | 32.11472 | -110.93530 | 2603 ft | 21 kts | 134° |
| 2026-05-08 22:27 | 32.11462 | -110.93519 | 2604 ft | 0 kts | 139° |
| 2026-05-08 22:27 | 32.11450 | -110.93504 | 2604 ft | 6 kts | 135° |
| 2026-05-08 22:27 | 32.11432 | -110.93483 | 2605 ft | 11 kts | 135° |
| 2026-05-08 22:27 | 32.11354 | -110.93392 | 2604 ft | 23 kts | 135° |
| 2026-05-08 22:28 | 32.11234 | -110.93248 | 2604 ft | 26 kts | 134° |
| 2026-05-08 22:28 | 32.11123 | -110.93120 | 2600 ft | 20 kts | 135° |
| 2026-05-08 22:28 | 32.11017 | -110.92996 | 2601 ft | 22 kts | 135° |
| 2026-05-08 22:28 | 32.10900 | -110.92856 | 2600 ft | 25 kts | 134° |
| 2026-05-08 22:29 | 32.10775 | -110.92709 | 2604 ft | 26 kts | 137° |
| 2026-05-08 22:29 | 32.10642 | -110.92558 | 2606 ft | 27 kts | 135° |
| 2026-05-08 22:29 | 32.10506 | -110.92397 | 2605 ft | 29 kts | 135° |
| 2026-05-08 22:29 | 32.10366 | -110.92237 | 2604 ft | 20 kts | 149° |
| 2026-05-08 22:30 | 32.10304 | -110.92257 | 2603 ft | 9 kts | 225° |
| 2026-05-08 22:30 | 32.10264 | -110.92319 | 2603 ft | 10 kts | 250° |
| 2026-05-08 22:30 | 32.10281 | -110.92392 | 2604 ft | 9 kts | 322° |
| 2026-05-08 22:30 | 32.10533 | -110.92681 | 2606 ft | 98 kts | 315° |
| 2026-05-08 22:31 | 32.11211 | -110.93475 | 2745 ft | 167 kts | 317° |
| 2026-05-08 22:31 | 32.12167 | -110.94512 | 3174 ft | 206 kts | 321° |
| 2026-05-08 22:31 | 32.13248 | -110.95763 | 3536 ft | 224 kts | 313° |
| 2026-05-08 22:31 | 32.14372 | -110.97193 | 3686 ft | 256 kts | 310° |
| 2026-05-08 22:32 | 32.15714 | -110.98823 | 3630 ft | 287 kts | 314° |
| 2026-05-08 22:32 | 32.17109 | -111.00422 | 3689 ft | 271 kts | 315° |
| 2026-05-08 22:32 | 32.18411 | -111.01947 | 4383 ft | 255 kts | 315° |
| 2026-05-08 22:32 | 32.19630 | -111.03382 | 6270 ft | 251 kts | 315° |
| 2026-05-08 22:33 | 32.21065 | -111.04599 | 7655 ft | 259 kts | 333° |
| 2026-05-08 22:33 | 32.22762 | -111.05478 | 9051 ft | 270 kts | 338° |
| 2026-05-08 22:33 | 32.24509 | -111.06353 | 10484 ft | 282 kts | 336° |
| 2026-05-08 22:33 | 32.26355 | -111.07428 | 11423 ft | 310 kts | 334° |
| 2026-05-08 22:34 | 32.28283 | -111.08618 | 12916 ft | 314 kts | 335° |
| 2026-05-08 22:34 | 32.30259 | -111.09785 | 14326 ft | 323 kts | 336° |
| 2026-05-08 22:34 | 32.32293 | -111.10955 | 15675 ft | 327 kts | 336° |
| 2026-05-08 22:34 | 32.34331 | -111.12139 | 17030 ft | 333 kts | 336° |
| 2026-05-08 22:35 | 32.36427 | -111.13375 | 18330 ft | 340 kts | 336° |
| 2026-05-08 22:35 | 32.38575 | -111.14641 | 19418 ft | 347 kts | 336° |
| 2026-05-08 22:35 | 32.40767 | -111.15926 | 20486 ft | 355 kts | 336° |
| 2026-05-08 22:35 | 32.42998 | -111.17235 | 21556 ft | 361 kts | 335° |
| 2026-05-08 22:36 | 32.45266 | -111.18569 | 22601 ft | 367 kts | 335° |
| 2026-05-08 22:36 | 32.47583 | -111.19933 | 23518 ft | 376 kts | 335° |
| 2026-05-08 22:36 | 32.49931 | -111.21314 | 24159 ft | 379 kts | 335° |
| 2026-05-08 22:36 | 32.52301 | -111.22708 | 25144 ft | 383 kts | 334° |
| 2026-05-08 22:37 | 32.54695 | -111.24119 | 26131 ft | 385 kts | 334° |
| 2026-05-08 22:37 | 32.57107 | -111.25541 | 26964 ft | 391 kts | 334° |
| 2026-05-08 22:37 | 32.59559 | -111.26988 | 27845 ft | 394 kts | 334° |
| 2026-05-08 22:37 | 32.62032 | -111.28448 | 28675 ft | 400 kts | 334° |
| 2026-05-08 22:38 | 32.64540 | -111.29928 | 29504 ft | 405 kts | 333° |
| 2026-05-08 22:38 | 32.67074 | -111.31426 | 30288 ft | 409 kts | 333° |
| 2026-05-08 22:38 | 32.69638 | -111.32942 | 30982 ft | 414 kts | 333° |
| 2026-05-08 22:38 | 32.72229 | -111.34476 | 31633 ft | 418 kts | 333° |
| 2026-05-08 22:39 | 32.74847 | -111.36026 | 32270 ft | 422 kts | 333° |
| 2026-05-08 22:39 | 32.77492 | -111.37593 | 32893 ft | 427 kts | 333° |
| 2026-05-08 22:39 | 32.80109 | -111.39145 | 33672 ft | 426 kts | 333° |
| 2026-05-08 22:39 | 32.82756 | -111.40714 | 34460 ft | 423 kts | 333° |
| 2026-05-08 22:40 | 32.85380 | -111.42272 | 35169 ft | 420 kts | 333° |
| 2026-05-08 22:40 | 32.87989 | -111.43822 | 35865 ft | 418 kts | 333° |
| 2026-05-08 22:40 | 32.90580 | -111.45363 | 36477 ft | 416 kts | 333° |
| 2026-05-08 22:40 | 32.93173 | -111.46905 | 37047 ft | 415 kts | 332° |
| 2026-05-08 22:41 | 32.95730 | -111.48485 | 37583 ft | 413 kts | 328° |
| 2026-05-08 22:41 | 32.98073 | -111.50456 | 38085 ft | 411 kts | 320° |
| 2026-05-08 22:41 | 33.00235 | -111.52676 | 38540 ft | 410 kts | 319° |
| 2026-05-08 22:41 | 33.02398 | -111.54891 | 38875 ft | 409 kts | 319° |
| 2026-05-08 22:42 | 33.04561 | -111.57096 | 39182 ft | 409 kts | 319° |
| 2026-05-08 22:42 | 33.06723 | -111.59308 | 39536 ft | 409 kts | 319° |
| 2026-05-08 22:42 | 33.08876 | -111.61521 | 39830 ft | 409 kts | 318° |
| 2026-05-08 22:42 | 33.11008 | -111.63709 | 40110 ft | 409 kts | 318° |
| 2026-05-08 22:43 | 33.13166 | -111.65923 | 40381 ft | 409 kts | 318° |
| 2026-05-08 22:43 | 33.15321 | -111.68136 | 40644 ft | 409 kts | 318° |
| 2026-05-08 22:43 | 33.17476 | -111.70352 | 40905 ft | 409 kts | 318° |
| 2026-05-08 22:43 | 33.19634 | -111.72572 | 41157 ft | 409 kts | 318° |
| 2026-05-08 22:44 | 33.21785 | -111.74786 | 41390 ft | 409 kts | 318° |
| 2026-05-08 22:44 | 33.23940 | -111.77006 | 41637 ft | 409 kts | 318° |
| 2026-05-08 22:44 | 33.26093 | -111.79225 | 41865 ft | 409 kts | 317° |
| 2026-05-08 22:44 | 33.28247 | -111.81447 | 42058 ft | 409 kts | 318° |
| 2026-05-08 22:45 | 33.30402 | -111.83671 | 42272 ft | 409 kts | 317° |
| 2026-05-08 22:45 | 33.32558 | -111.85897 | 42483 ft | 409 kts | 317° |
| 2026-05-08 22:45 | 33.34711 | -111.88123 | 42687 ft | 409 kts | 317° |
| 2026-05-08 22:45 | 33.36836 | -111.90322 | 42849 ft | 409 kts | 317° |
| 2026-05-08 22:46 | 33.39004 | -111.92566 | 42857 ft | 414 kts | 317° |
| 2026-05-08 22:46 | 33.43655 | -111.96746 | 42865 ft | 425 kts | 329° |
| 2026-05-08 22:47 | 33.48259 | -111.98985 | 42883 ft | 434 kts | 340° |
| 2026-05-08 22:47 | 33.54045 | -112.01272 | 42867 ft | 441 kts | 339° |
| 2026-05-08 22:48 | 33.59922 | -112.03609 | 42904 ft | 448 kts | 340° |
| 2026-05-08 22:48 | 33.65881 | -112.05974 | 42906 ft | 454 kts | 340° |
| 2026-05-08 22:49 | 33.71918 | -112.08379 | 42911 ft | 460 kts | 340° |
| 2026-05-08 22:49 | 33.81056 | -112.12020 | 42844 ft | 459 kts | 340° |
| 2026-05-08 22:50 | 33.84376 | -112.13348 | 42835 ft | 458 kts | 340° |
| 2026-05-08 22:50 | 33.90411 | -112.15762 | 42843 ft | 456 kts | 340° |
| 2026-05-08 22:51 | 33.96441 | -112.18176 | 42855 ft | 457 kts | 340° |
| 2026-05-08 22:51 | 34.02485 | -112.20600 | 42850 ft | 458 kts | 340° |
| 2026-05-08 22:52 | 34.08544 | -112.23034 | 42856 ft | 460 kts | 340° |
| 2026-05-08 22:52 | 34.14597 | -112.25469 | 42857 ft | 462 kts | 340° |
| 2026-05-08 22:53 | 34.20680 | -112.27915 | 42864 ft | 456 kts | 340° |
| 2026-05-08 22:53 | 34.26634 | -112.30323 | 42862 ft | 447 kts | 339° |
| 2026-05-08 22:54 | 34.32489 | -112.32687 | 42851 ft | 446 kts | 340° |
| 2026-05-08 22:54 | 34.38405 | -112.35083 | 42865 ft | 449 kts | 339° |
| 2026-05-08 22:55 | 34.44355 | -112.37493 | 42865 ft | 451 kts | 340° |
| 2026-05-08 22:55 | 34.47340 | -112.38702 | 43016 ft | 451 kts | 340° |
| 2026-05-08 22:55 | 34.50319 | -112.39914 | 43040 ft | 451 kts | 340° |
| 2026-05-08 22:56 | 34.56273 | -112.42335 | 43094 ft | 453 kts | 340° |
| 2026-05-08 22:56 | 34.62231 | -112.44844 | 43089 ft | 453 kts | 335° |
| 2026-05-08 22:57 | 34.67578 | -112.48828 | 43087 ft | 450 kts | 320° |
| 2026-05-08 22:57 | 34.69852 | -112.51448 | 42383 ft | 452 kts | 312° |
| 2026-05-08 22:57 | 34.71788 | -112.54430 | 41793 ft | 447 kts | 304° |
| 2026-05-08 22:58 | 34.73342 | -112.57666 | 41219 ft | 440 kts | 297° |
| 2026-05-08 22:58 | 34.74512 | -112.61018 | 40650 ft | 431 kts | 292° |
| 2026-05-08 22:58 | 34.75598 | -112.64377 | 40088 ft | 422 kts | 292° |
| 2026-05-08 22:58 | 34.76679 | -112.67665 | 39536 ft | 414 kts | 293° |
| 2026-05-08 22:59 | 34.77740 | -112.70899 | 38997 ft | 410 kts | 292° |
| 2026-05-08 22:59 | 34.78789 | -112.74126 | 38447 ft | 409 kts | 292° |
| 2026-05-08 22:59 | 34.79838 | -112.77360 | 37877 ft | 414 kts | 292° |
| 2026-05-08 22:59 | 34.80910 | -112.80655 | 37327 ft | 424 kts | 292° |
| 2026-05-08 23:00 | 34.82011 | -112.84032 | 36763 ft | 434 kts | 292° |
| 2026-05-08 23:00 | 34.83126 | -112.87484 | 36187 ft | 439 kts | 292° |
| 2026-05-08 23:00 | 34.84247 | -112.90949 | 35610 ft | 440 kts | 292° |
| 2026-05-08 23:00 | 34.85362 | -112.94396 | 35027 ft | 437 kts | 292° |
| 2026-05-08 23:01 | 34.86477 | -112.97841 | 34445 ft | 436 kts | 292° |
| 2026-05-08 23:01 | 34.87574 | -113.01226 | 33882 ft | 437 kts | 292° |
| 2026-05-08 23:01 | 34.88692 | -113.04696 | 33264 ft | 443 kts | 292° |
| 2026-05-08 23:01 | 34.89821 | -113.08216 | 32680 ft | 448 kts | 292° |
| 2026-05-08 23:02 | 34.90966 | -113.11776 | 32078 ft | 452 kts | 292° |
| 2026-05-08 23:02 | 34.92117 | -113.15350 | 31482 ft | 455 kts | 292° |
| 2026-05-08 23:02 | 34.93272 | -113.18953 | 30876 ft | 456 kts | 292° |
| 2026-05-08 23:02 | 34.94408 | -113.22527 | 30286 ft | 451 kts | 292° |
| 2026-05-08 23:03 | 34.95566 | -113.26100 | 29636 ft | 454 kts | 292° |
| 2026-05-08 23:03 | 34.96716 | -113.29704 | 29028 ft | 453 kts | 292° |
| 2026-05-08 23:03 | 34.97919 | -113.33169 | 28436 ft | 444 kts | 298° |
| 2026-05-08 23:03 | 34.99495 | -113.36375 | 27880 ft | 439 kts | 306° |
| 2026-05-08 23:04 | 35.01418 | -113.39286 | 27839 ft | 448 kts | 313° |
| 2026-05-08 23:04 | 35.03744 | -113.41947 | 27838 ft | 465 kts | 321° |
| 2026-05-08 23:04 | 35.06264 | -113.44471 | 27836 ft | 471 kts | 321° |
| 2026-05-08 23:04 | 35.08771 | -113.46995 | 27842 ft | 465 kts | 321° |
| 2026-05-08 23:05 | 35.11262 | -113.49508 | 27836 ft | 464 kts | 321° |
| 2026-05-08 23:05 | 35.13749 | -113.52017 | 27830 ft | 461 kts | 321° |
| 2026-05-08 23:05 | 35.16222 | -113.54515 | 27849 ft | 463 kts | 320° |
| 2026-05-08 23:05 | 35.18716 | -113.57031 | 27873 ft | 461 kts | 321° |
| 2026-05-08 23:06 | 35.21100 | -113.59437 | 27419 ft | 431 kts | 321° |
| 2026-05-08 23:06 | 35.23402 | -113.61766 | 26031 ft | 428 kts | 321° |
| 2026-05-08 23:06 | 35.25666 | -113.64063 | 25228 ft | 413 kts | 321° |
| 2026-05-08 23:06 | 35.27792 | -113.66224 | 24112 ft | 402 kts | 321° |
| 2026-05-08 23:07 | 35.29986 | -113.68457 | 22642 ft | 409 kts | 322° |
| 2026-05-08 23:07 | 35.32137 | -113.70650 | 21581 ft | 397 kts | 321° |
| 2026-05-08 23:07 | 35.34258 | -113.72811 | 20292 ft | 396 kts | 321° |
| 2026-05-08 23:07 | 35.36348 | -113.74949 | 19278 ft | 386 kts | 321° |
| 2026-05-08 23:08 | 35.38404 | -113.77059 | 18075 ft | 385 kts | 321° |
| 2026-05-08 23:08 | 35.40446 | -113.79153 | 16901 ft | 380 kts | 320° |
| 2026-05-08 23:08 | 35.42455 | -113.81210 | 15802 ft | 373 kts | 320° |
| 2026-05-08 23:08 | 35.44434 | -113.83234 | 14733 ft | 367 kts | 319° |
| 2026-05-08 23:09 | 35.46390 | -113.85232 | 14045 ft | 361 kts | 319° |
| 2026-05-08 23:09 | 35.48303 | -113.87189 | 14019 ft | 361 kts | 319° |
| 2026-05-08 23:09 | 35.50256 | -113.89189 | 14002 ft | 366 kts | 319° |
| 2026-05-08 23:09 | 35.52198 | -113.91181 | 13984 ft | 361 kts | 319° |
| 2026-05-08 23:10 | 35.54120 | -113.93152 | 13980 ft | 358 kts | 319° |
| 2026-05-08 23:10 | 35.56005 | -113.95084 | 13957 ft | 358 kts | 319° |
| 2026-05-08 23:10 | 35.57934 | -113.97062 | 13949 ft | 362 kts | 319° |
| 2026-05-08 23:10 | 35.59868 | -113.99046 | 13931 ft | 362 kts | 319° |
| 2026-05-08 23:11 | 35.61802 | -114.01031 | 13916 ft | 362 kts | 319° |
| 2026-05-08 23:11 | 35.63738 | -114.03017 | 13912 ft | 363 kts | 319° |
| 2026-05-08 23:11 | 35.65661 | -114.04989 | 13908 ft | 355 kts | 319° |
| 2026-05-08 23:11 | 35.67518 | -114.06894 | 13902 ft | 341 kts | 319° |
| 2026-05-08 23:12 | 35.69316 | -114.08738 | 13894 ft | 331 kts | 320° |
| 2026-05-08 23:12 | 35.71079 | -114.10546 | 13894 ft | 330 kts | 320° |
| 2026-05-08 23:12 | 35.72855 | -114.12366 | 13897 ft | 334 kts | 320° |
| 2026-05-08 23:12 | 35.74649 | -114.14206 | 13884 ft | 336 kts | 320° |
| 2026-05-08 23:13 | 35.76446 | -114.16048 | 13877 ft | 336 kts | 320° |
| 2026-05-08 23:13 | 35.78221 | -114.17869 | 13886 ft | 335 kts | 320° |
| 2026-05-08 23:13 | 35.80000 | -114.19719 | 13883 ft | 334 kts | 316° |
| 2026-05-08 23:13 | 35.81267 | -114.22125 | 13881 ft | 333 kts | 292° |
| 2026-05-08 23:14 | 35.81889 | -114.24842 | 13882 ft | 334 kts | 283° |
| 2026-05-08 23:14 | 35.82385 | -114.27644 | 13880 ft | 335 kts | 284° |
| 2026-05-08 23:14 | 35.82998 | -114.30420 | 13873 ft | 336 kts | 288° |
| 2026-05-08 23:14 | 35.83860 | -114.33094 | 13869 ft | 336 kts | 297° |
| 2026-05-08 23:15 | 35.85101 | -114.35504 | 13868 ft | 327 kts | 307° |
| 2026-05-08 23:15 | 35.86482 | -114.37631 | 13862 ft | 309 kts | 308° |
| 2026-05-08 23:15 | 35.87777 | -114.39663 | 13786 ft | 296 kts | 307° |
| 2026-05-08 23:15 | 35.89020 | -114.41678 | 13456 ft | 296 kts | 306° |
| 2026-05-08 23:16 | 35.90270 | -114.43703 | 13071 ft | 297 kts | 306° |
| 2026-05-08 23:16 | 35.91534 | -114.45725 | 12685 ft | 296 kts | 307° |
| 2026-05-08 23:16 | 35.92791 | -114.47734 | 12303 ft | 294 kts | 306° |
| 2026-05-08 23:16 | 35.94034 | -114.49730 | 11923 ft | 293 kts | 306° |
| 2026-05-08 23:17 | 35.95270 | -114.51717 | 11537 ft | 291 kts | 306° |
| 2026-05-08 23:17 | 35.96501 | -114.53698 | 11161 ft | 291 kts | 306° |
| 2026-05-08 23:17 | 35.97724 | -114.55687 | 10788 ft | 290 kts | 306° |
| 2026-05-08 23:17 | 35.98943 | -114.57669 | 10412 ft | 290 kts | 306° |
| 2026-05-08 23:18 | 36.00168 | -114.59658 | 10033 ft | 290 kts | 306° |
| 2026-05-08 23:18 | 36.01359 | -114.61591 | 9656 ft | 275 kts | 306° |
| 2026-05-08 23:18 | 36.02470 | -114.63398 | 9295 ft | 260 kts | 305° |
| 2026-05-08 23:18 | 36.03540 | -114.65132 | 8956 ft | 247 kts | 304° |
| 2026-05-08 23:19 | 36.04440 | -114.66859 | 8694 ft | 232 kts | 298° |
| 2026-05-08 23:19 | 36.05246 | -114.68541 | 8477 ft | 223 kts | 298° |
| 2026-05-08 23:19 | 36.06029 | -114.70140 | 8303 ft | 208 kts | 299° |
| 2026-05-08 23:19 | 36.06758 | -114.71594 | 8079 ft | 191 kts | 299° |
| 2026-05-08 23:20 | 36.07427 | -114.72949 | 7925 ft | 175 kts | 298° |
| 2026-05-08 23:20 | 36.07647 | -114.74299 | 7877 ft | 160 kts | 255° |
| 2026-05-08 23:20 | 36.07187 | -114.75539 | 7936 ft | 165 kts | 257° |
| 2026-05-08 23:20 | 36.07323 | -114.76991 | 7989 ft | 176 kts | 279° |
| 2026-05-08 23:21 | 36.07377 | -114.78525 | 7978 ft | 180 kts | 269° |
| 2026-05-08 23:21 | 36.07392 | -114.80066 | 7970 ft | 179 kts | 270° |
| 2026-05-08 23:21 | 36.07384 | -114.81588 | 7967 ft | 176 kts | 269° |
| 2026-05-08 23:21 | 36.07389 | -114.83091 | 7956 ft | 174 kts | 270° |
| 2026-05-08 23:22 | 36.07387 | -114.84558 | 7932 ft | 170 kts | 268° |
| 2026-05-08 23:22 | 36.07373 | -114.85995 | 7692 ft | 166 kts | 269° |
| 2026-05-08 23:22 | 36.07368 | -114.87436 | 7453 ft | 169 kts | 269° |
| 2026-05-08 23:22 | 36.07361 | -114.88911 | 7251 ft | 173 kts | 269° |
| 2026-05-08 23:23 | 36.07355 | -114.90400 | 7071 ft | 173 kts | 269° |
| 2026-05-08 23:23 | 36.07346 | -114.91897 | 6867 ft | 174 kts | 269° |
| 2026-05-08 23:23 | 36.07340 | -114.93348 | 6774 ft | 162 kts | 269° |
| 2026-05-08 23:23 | 36.07333 | -114.94818 | 6545 ft | 176 kts | 269° |
| 2026-05-08 23:24 | 36.07325 | -114.96346 | 6376 ft | 178 kts | 269° |
| 2026-05-08 23:24 | 36.07317 | -114.97868 | 6219 ft | 176 kts | 269° |
| 2026-05-08 23:24 | 36.07311 | -114.99418 | 5737 ft | 174 kts | 270° |
| 2026-05-08 23:24 | 36.07309 | -115.00799 | 5331 ft | 153 kts | 269° |
| 2026-05-08 23:25 | 36.07310 | -115.02091 | 4767 ft | 148 kts | 268° |
| 2026-05-08 23:25 | 36.07314 | -115.03305 | 4355 ft | 132 kts | 269° |
| 2026-05-08 23:25 | 36.07337 | -115.04439 | 3891 ft | 129 kts | 269° |
| 2026-05-08 23:25 | 36.07346 | -115.05547 | 3682 ft | 132 kts | 271° |
| 2026-05-08 23:26 | 36.07364 | -115.06734 | 3373 ft | 141 kts | 271° |
| 2026-05-08 23:26 | 36.07382 | -115.07924 | 3145 ft | 139 kts | 269° |
| 2026-05-08 23:26 | 36.07409 | -115.09135 | 2752 ft | 143 kts | 266° |
| 2026-05-08 23:26 | 36.07385 | -115.10320 | 2507 ft | 137 kts | 267° |
| 2026-05-08 23:27 | 36.07358 | -115.11508 | 2353 ft | 142 kts | 266° |
| 2026-05-08 23:27 | 36.07362 | -115.12763 | 2166 ft | 139 kts | 268° |
| 2026-05-08 23:27 | 36.07365 | -115.13804 | 2118 ft | 99 kts | 265° |
| 2026-05-08 23:27 | 36.07368 | -115.14270 | 2121 ft | 25 kts | 276° |
| 2026-05-08 23:28 | 36.07415 | -115.14480 | 2122 ft | 26 kts | 292° |
| 2026-05-08 23:28 | 36.07496 | -115.14633 | 2118 ft | 14 kts | 314° |
| 2026-05-08 23:28 | 36.07584 | -115.14655 | 2119 ft | 14 kts | 1° |
| 2026-05-08 23:28 | 36.07694 | -115.14655 | 2117 ft | 18 kts | 359° |
| 2026-05-08 23:29 | 36.07768 | -115.14696 | 2114 ft | 11 kts | 294° |
| 2026-05-08 23:29 | 36.07783 | -115.14782 | 2117 ft | 10 kts | 276° |
| 2026-05-08 23:29 | 36.07785 | -115.14861 | 2120 ft | 9 kts | 277° |
| 2026-05-08 23:29 | 36.07791 | -115.14943 | 2120 ft | 10 kts | 275° |
| 2026-05-08 23:30 | 36.07798 | -115.15045 | 2119 ft | 14 kts | 275° |
| 2026-05-08 23:30 | 36.07803 | -115.15129 | 2119 ft | 15 kts | 272° |
| 2026-05-08 23:30 | 36.07804 | -115.15264 | 2122 ft | 16 kts | 269° |
| 2026-05-08 23:30 | 36.07803 | -115.15402 | 2123 ft | 17 kts | 270° |
| 2026-05-08 23:31 | 36.07804 | -115.15564 | 2120 ft | 21 kts | 270° |
| 2026-05-08 23:31 | 36.07801 | -115.15756 | 2118 ft | 23 kts | 268° |
| 2026-05-08 23:31 | 36.07802 | -115.15960 | 2117 ft | 25 kts | 271° |
| 2026-05-08 23:31 | 36.07803 | -115.16141 | 2113 ft | 18 kts | 271° |
| 2026-05-08 23:32 | 36.07802 | -115.16280 | 2116 ft | 11 kts | 269° |
| 2026-05-08 23:32 | 36.07803 | -115.16369 | 2117 ft | 0 kts | 272° |
| 2026-05-08 23:33 | 36.07803 | -115.16373 | 2117 ft | 4 kts | 272° |
| 2026-05-08 23:34 | 36.07803 | -115.16464 | 2116 ft | 15 kts | 269° |
| 2026-05-08 23:34 | 36.07801 | -115.16606 | 2115 ft | 18 kts | 268° |
| 2026-05-08 23:34 | 36.07799 | -115.16750 | 2120 ft | 16 kts | 281° |
| 2026-05-08 23:34 | 36.07801 | -115.16882 | 2122 ft | 16 kts | 269° |
| 2026-05-08 23:35 | 36.07816 | -115.16992 | 2125 ft | 8 kts | 319° |
| 2026-05-08 23:35 | 36.07874 | -115.16993 | 2123 ft | 11 kts | 24° |
| 2026-05-08 23:35 | 36.07965 | -115.16939 | 2122 ft | 17 kts | 25° |
| 2026-05-08 23:35 | 36.08087 | -115.16870 | 2122 ft | 21 kts | 25° |
| 2026-05-08 23:36 | 36.08227 | -115.16793 | 2121 ft | 22 kts | 14° |
| 2026-05-08 23:36 | 36.08270 | -115.16823 | 2122 ft | 7 kts | 298° |
| 2026-05-08 23:36 | 36.08263 | -115.16859 | 2123 ft | 4 kts | 229° |
| 2026-05-08 23:36 | 36.08242 | -115.16875 | 2124 ft | 7 kts | 201° |
| 2026-05-08 23:37 | 36.08178 | -115.16906 | 2126 ft | 11 kts | 204° |
| 2026-05-08 23:37 | 36.08149 | -115.16988 | 2127 ft | 11 kts | 268° |
| 2026-05-08 23:37 | 36.08150 | -115.17045 | 2130 ft | 0 kts | 289° |
| 2026-05-08 23:37 | 36.08157 | -115.17056 | 2131 ft | 4 kts | 322° |
| 2026-05-08 23:38 | 36.08181 | -115.17061 | 2131 ft | 0 kts | 358° |